createdAt,value
2023-04-03T00:00:37.060Z,12.18
2023-04-03T00:03:04.172Z,12.29
2023-04-03T00:05:31.004Z,12.09
2023-04-03T00:07:59.086Z,12.10
2023-04-03T00:10:25.765Z,11.73
2023-04-03T00:12:52.443Z,12.00
2023-04-03T00:15:19.382Z,12.20
2023-04-03T00:17:46.190Z,11.95
2023-04-03T00:20:12.876Z,12.12
2023-04-03T00:22:39.601Z,11.97
2023-04-03T00:25:09.080Z,12.01
2023-04-03T00:27:37.472Z,12.01
2023-04-03T00:30:05.355Z,11.55
2023-04-03T00:32:32.143Z,11.86
2023-04-03T00:34:58.828Z,12.22
2023-04-03T00:37:25.702Z,12.10
2023-04-03T00:39:52.423Z,11.99
2023-04-03T00:42:20.525Z,11.94
2023-04-03T00:45:28.799Z,12.16
2023-04-03T00:47:56.349Z,11.93
2023-04-03T00:50:24.185Z,11.74
2023-04-03T00:52:51.780Z,11.89
2023-04-03T00:55:18.519Z,11.92
2023-04-03T00:57:47.840Z,11.87
2023-04-03T01:00:17.944Z,11.81
2023-04-03T01:02:44.854Z,11.87
2023-04-03T01:05:12.753Z,11.94
2023-04-03T01:07:40.147Z,11.96
2023-04-03T01:10:09.461Z,11.85
2023-04-03T01:12:38.933Z,11.98
2023-04-03T01:15:10.190Z,11.99
2023-04-03T01:17:40.537Z,11.70
2023-04-03T01:20:51.659Z,11.95
2023-04-03T01:23:30.071Z,11.89
2023-04-03T01:25:58.087Z,11.99
2023-04-03T01:28:27.380Z,11.93
2023-04-03T01:31:04.858Z,11.60
2023-04-03T01:33:33.305Z,11.52
2023-04-03T01:36:00.048Z,11.47
2023-04-03T01:38:27.228Z,11.53
2023-04-03T01:40:54.062Z,11.59
2023-04-03T01:43:20.744Z,11.58
2023-04-03T01:45:47.555Z,11.49
2023-04-03T01:48:14.522Z,11.51
2023-04-03T01:50:42.767Z,11.66
2023-04-03T01:53:09.569Z,11.74
2023-04-03T01:55:36.231Z,11.63
2023-04-03T01:58:02.947Z,11.67
2023-04-03T02:00:29.782Z,11.59
2023-04-03T02:02:56.477Z,11.57
2023-04-03T02:05:23.285Z,11.49
2023-04-03T02:07:51.444Z,11.50
2023-04-03T02:10:18.496Z,11.45
2023-04-03T02:12:45.128Z,11.39
2023-04-03T02:15:11.767Z,11.15
2023-04-03T02:17:38.455Z,11.41
2023-04-03T02:20:06.125Z,11.53
2023-04-03T02:22:32.882Z,11.46
2023-04-03T02:25:01.864Z,11.40
2023-04-03T02:27:28.864Z,11.26
2023-04-03T02:29:55.489Z,11.30
2023-04-03T02:32:22.177Z,11.22
2023-04-03T02:34:48.881Z,11.41
2023-04-03T02:37:15.773Z,11.25
2023-04-03T02:39:42.405Z,11.51
2023-04-03T02:42:10.383Z,11.50
2023-04-03T02:44:37.106Z,11.65
2023-04-03T02:47:03.920Z,11.63
2023-04-03T02:49:30.663Z,11.69
2023-04-03T02:51:57.361Z,11.43
2023-04-03T02:54:24.031Z,11.35
2023-04-03T02:56:50.877Z,11.31
2023-04-03T02:59:19.124Z,11.27
2023-04-03T03:01:46.300Z,11.44
2023-04-03T03:04:13.035Z,11.22
2023-04-03T03:06:39.769Z,11.34
2023-04-03T03:09:06.818Z,11.36
2023-04-03T03:11:33.559Z,11.17
2023-04-03T03:14:00.198Z,11.07
2023-04-03T03:16:28.250Z,11.05
2023-04-03T03:18:55.641Z,11.03
2023-04-03T03:21:23.071Z,10.96
2023-04-03T03:23:49.765Z,10.93
2023-04-03T03:26:16.394Z,11.01
2023-04-03T03:28:43.016Z,10.81
2023-04-03T03:31:10.323Z,10.92
2023-04-03T03:33:38.567Z,11.31
2023-04-03T03:36:05.699Z,11.32
2023-04-03T03:38:32.326Z,11.27
2023-04-03T03:40:59.038Z,10.88
2023-04-03T03:43:25.661Z,10.85
2023-04-03T03:45:53.413Z,10.91
2023-04-03T03:48:20.468Z,11.05
2023-04-03T03:50:48.659Z,10.82
2023-04-03T03:53:16.009Z,10.87
2023-04-03T03:55:43.006Z,11.07
2023-04-03T03:58:09.971Z,10.93
2023-04-03T04:00:36.857Z,10.86
2023-04-03T04:03:03.812Z,10.66
2023-04-03T04:05:30.541Z,10.64
2023-04-03T04:07:58.646Z,10.87
2023-04-03T04:10:25.475Z,10.93
2023-04-03T04:12:52.126Z,10.78
2023-04-03T04:15:18.832Z,10.73
2023-04-03T04:17:45.474Z,10.71
2023-04-03T04:20:12.439Z,10.84
2023-04-03T04:22:39.225Z,10.93
2023-04-03T04:25:08.014Z,10.72
2023-04-03T04:27:34.697Z,10.84
2023-04-03T04:30:01.487Z,10.79
2023-04-03T04:32:28.200Z,10.59
2023-04-03T04:34:54.999Z,10.81
2023-04-03T04:37:21.670Z,10.79
2023-04-03T04:39:48.270Z,10.73
2023-04-03T04:42:17.872Z,10.58
2023-04-03T04:44:44.793Z,10.89
2023-04-03T04:47:11.763Z,10.79
2023-04-03T04:49:38.622Z,10.64
2023-04-03T04:52:05.639Z,10.86
2023-04-03T04:54:32.615Z,10.56
2023-04-03T04:56:59.334Z,10.67
2023-04-03T04:59:27.443Z,10.75
2023-04-03T05:01:54.173Z,10.71
2023-04-03T05:04:21.051Z,10.59
2023-04-03T05:06:47.728Z,10.66
2023-04-03T05:09:14.545Z,10.60
2023-04-03T05:11:41.154Z,10.40
2023-04-03T05:14:07.859Z,10.15
2023-04-03T05:16:35.986Z,10.11
2023-04-03T05:19:02.647Z,10.12
2023-04-03T05:21:29.850Z,10.03
2023-04-03T05:23:56.547Z,10.18
2023-04-03T05:26:23.156Z,10.14
2023-04-03T05:28:49.805Z,10.10
2023-04-03T05:31:17.622Z,10.04
2023-04-03T05:33:45.680Z,9.95
2023-04-03T05:36:12.425Z,9.89
2023-04-03T05:38:40.957Z,9.68
2023-04-03T05:41:07.881Z,9.69
2023-04-03T05:43:34.502Z,9.65
2023-04-03T05:46:01.145Z,9.56
2023-04-03T05:48:27.833Z,9.70
2023-04-03T05:50:57.137Z,9.44
2023-04-03T05:53:28.055Z,9.24
2023-04-03T05:55:54.700Z,9.39
2023-04-03T05:58:21.419Z,9.31
2023-04-03T06:00:48.166Z,9.38
2023-04-03T06:03:15.031Z,9.61
2023-04-03T06:05:41.814Z,9.85
2023-04-03T06:08:09.912Z,10.04
2023-04-03T06:10:36.907Z,10.07
2023-04-03T06:13:03.981Z,10.16
2023-04-03T06:15:30.987Z,10.59
2023-04-03T06:17:57.746Z,10.91
2023-04-03T06:20:24.432Z,11.22
2023-04-03T06:22:51.132Z,11.52
2023-04-03T06:25:23.344Z,11.71
2023-04-03T06:27:50.086Z,11.58
2023-04-03T06:30:16.964Z,11.84
2023-04-03T06:32:43.631Z,12.26
2023-04-03T06:35:10.892Z,12.39
2023-04-03T06:37:37.683Z,12.78
2023-04-03T06:40:05.232Z,13.03
2023-04-03T06:42:33.279Z,13.20
2023-04-03T06:44:59.941Z,13.15
2023-04-03T06:47:26.986Z,13.87
2023-04-03T06:49:53.904Z,13.84
2023-04-03T06:52:20.824Z,14.17
2023-04-03T06:54:47.483Z,14.22
2023-04-03T06:57:14.364Z,14.25
2023-04-03T06:59:42.875Z,14.77
2023-04-03T07:02:12.559Z,15.22
2023-04-03T07:04:39.561Z,15.66
2023-04-03T07:07:06.581Z,15.73
2023-04-03T07:09:33.274Z,15.53
2023-04-03T07:11:59.990Z,15.39
2023-04-03T07:14:26.804Z,15.46
2023-04-03T07:16:55.093Z,15.34
2023-04-03T07:19:21.768Z,16.06
2023-04-03T07:21:48.447Z,16.59
2023-04-03T07:24:16.596Z,16.68
2023-04-03T07:26:43.707Z,16.79
2023-04-03T07:29:10.414Z,16.78
2023-04-03T07:31:37.144Z,16.03
2023-04-03T07:34:05.235Z,15.23
2023-04-03T07:36:31.945Z,15.75
2023-04-03T07:38:58.620Z,16.31
2023-04-03T07:41:25.309Z,16.95
2023-04-03T07:43:51.962Z,16.67
2023-04-03T07:46:18.732Z,16.98
2023-04-03T07:48:45.571Z,17.42
2023-04-03T07:51:13.755Z,17.12
2023-04-03T07:53:40.378Z,16.35
2023-04-03T07:56:07.975Z,16.11
2023-04-03T07:58:34.887Z,15.41
2023-04-03T08:01:01.577Z,15.58
2023-04-03T08:03:28.647Z,15.87
2023-04-03T08:05:55.342Z,16.28
2023-04-03T08:08:24.066Z,16.72
2023-04-03T08:10:51.696Z,17.21
2023-04-03T08:13:18.432Z,15.93
2023-04-03T08:15:45.159Z,15.65
2023-04-03T08:18:12.053Z,16.78
2023-04-03T08:20:39.574Z,16.21
2023-04-03T08:23:06.494Z,16.61
2023-04-03T08:25:34.871Z,16.36
2023-04-03T08:28:01.671Z,16.60
2023-04-03T08:30:28.345Z,16.14
2023-04-03T08:32:55.035Z,16.12
2023-04-03T08:35:21.736Z,16.93
2023-04-03T08:37:48.668Z,17.12
2023-04-03T08:40:18.042Z,17.57
2023-04-03T08:42:58.519Z,17.71
2023-04-03T08:45:34.286Z,17.68
2023-04-03T08:48:06.911Z,18.08
2023-04-03T08:50:39.100Z,18.11
2023-04-03T08:53:11.874Z,18.31
2023-04-03T08:55:43.455Z,18.30
2023-04-03T08:58:15.743Z,17.73
2023-04-03T09:00:48.001Z,17.65
2023-04-03T09:03:17.090Z,18.10
2023-04-03T09:05:49.242Z,17.42
2023-04-03T09:08:24.395Z,17.33
2023-04-03T09:10:59.409Z,17.50
2023-04-03T09:13:35.600Z,18.12
2023-04-03T09:16:11.305Z,18.70
2023-04-03T09:18:42.871Z,19.21
2023-04-03T09:21:18.325Z,19.66
2023-04-03T09:23:48.852Z,19.11
2023-04-03T09:26:19.919Z,19.05
2023-04-03T09:28:50.784Z,18.80
2023-04-03T09:31:22.657Z,18.61
2023-04-03T09:33:51.610Z,18.19
2023-04-03T09:36:39.848Z,18.52
2023-04-03T09:39:10.251Z,18.96
2023-04-03T09:41:36.894Z,19.72
2023-04-03T09:44:22.215Z,20.35
2023-04-03T09:46:49.375Z,20.52
2023-04-03T09:49:16.048Z,19.88
2023-04-03T09:51:42.795Z,19.98
2023-04-03T09:54:42.755Z,19.86
2023-04-03T09:57:13.030Z,19.33
2023-04-03T09:59:47.263Z,19.05
2023-04-03T10:02:29.559Z,18.09
2023-04-03T10:05:08.956Z,17.98
2023-04-03T10:07:39.105Z,18.02
2023-04-03T10:10:19.036Z,17.76
2023-04-03T10:12:45.765Z,17.67
2023-04-03T10:15:16.142Z,17.85
2023-04-03T10:17:54.880Z,18.31
2023-04-03T10:20:31.173Z,18.60
2023-04-03T10:23:09.457Z,18.83
2023-04-03T10:25:44.232Z,18.59
2023-04-03T10:28:16.097Z,18.82
2023-04-03T10:30:51.418Z,19.03
2023-04-03T10:33:32.579Z,19.51
2023-04-03T10:36:08.561Z,19.44
2023-04-03T10:38:44.606Z,18.94
2023-04-03T10:41:17.596Z,18.85
2023-04-03T10:43:54.595Z,18.33
2023-04-03T10:46:28.538Z,18.49
2023-04-03T10:49:13.074Z,18.94
2023-04-03T10:51:43.267Z,19.27
2023-04-03T10:54:13.876Z,19.07
2023-04-03T10:56:43.708Z,19.49
2023-04-03T10:59:24.926Z,19.98
2023-04-03T11:01:57.690Z,19.77
2023-04-03T11:04:30.733Z,19.98
2023-04-03T11:07:02.872Z,18.88
2023-04-03T11:09:34.349Z,19.22
2023-04-03T11:12:05.095Z,18.93
2023-04-03T11:14:33.658Z,19.52
2023-04-03T11:17:16.517Z,20.17
2023-04-03T11:19:49.205Z,20.18
2023-04-03T11:22:24.928Z,20.40
2023-04-03T11:25:00.182Z,19.40
2023-04-03T11:27:31.880Z,19.00
2023-04-03T11:30:08.329Z,19.45
2023-04-03T11:33:06.554Z,19.94
2023-04-03T11:35:34.896Z,20.54
2023-04-03T11:38:05.732Z,20.97
2023-04-03T11:40:35.464Z,20.63
2023-04-03T11:43:08.504Z,20.74
2023-04-03T11:45:50.876Z,21.04
2023-04-03T11:48:45.503Z,20.33
2023-04-03T11:51:39.859Z,20.00
2023-04-03T11:54:45.187Z,20.51
2023-04-03T11:57:45.600Z,21.33
2023-04-03T12:00:51.120Z,21.44
2023-04-03T12:04:02.712Z,22.35
2023-04-03T12:07:13.886Z,22.04
2023-04-03T12:10:31.028Z,22.51
2023-04-03T12:13:01.904Z,22.70
2023-04-03T12:15:50.628Z,20.73
2023-04-03T12:18:51.124Z,19.93
2023-04-03T12:21:18.800Z,20.90
2023-04-03T12:24:01.961Z,21.51
2023-04-03T12:26:45.981Z,22.47
2023-04-03T12:29:21.929Z,23.72
2023-04-03T12:32:04.892Z,24.80
2023-04-03T12:34:52.620Z,23.82
2023-04-03T12:37:39.284Z,23.19
2023-04-03T12:40:16.585Z,22.36
2023-04-03T12:43:06.151Z,22.55
2023-04-03T12:45:42.786Z,22.91
2023-04-03T12:48:16.084Z,23.07
2023-04-03T12:50:46.748Z,23.54
2023-04-03T12:53:17.552Z,23.71
2023-04-03T12:55:44.518Z,22.29
2023-04-03T12:58:23.695Z,21.88
2023-04-03T13:01:01.340Z,21.73
2023-04-03T13:03:28.980Z,20.58
2023-04-03T13:05:59.905Z,20.71
2023-04-03T13:08:26.665Z,20.53
2023-04-03T13:10:58.036Z,20.59
2023-04-03T13:13:26.187Z,20.77
2023-04-03T13:15:55.347Z,20.97
2023-04-03T13:18:27.815Z,21.47
2023-04-03T13:20:58.265Z,21.66
2023-04-03T13:23:25.697Z,21.09
2023-04-03T13:25:52.694Z,20.74
2023-04-03T13:28:22.640Z,20.72
2023-04-03T13:31:01.851Z,20.72
2023-04-03T13:33:31.445Z,20.62
2023-04-03T13:36:02.992Z,20.79
2023-04-03T13:38:31.800Z,20.54
2023-04-03T13:41:00.790Z,20.67
2023-04-03T13:43:29.580Z,20.87
2023-04-03T13:46:02.247Z,21.00
2023-04-03T13:48:36.834Z,21.18
2023-04-03T13:51:07.249Z,21.58
2023-04-03T13:53:42.285Z,21.26
2023-04-03T13:56:17.203Z,20.95
2023-04-03T13:58:55.503Z,20.85
2023-04-03T14:01:25.114Z,21.49
2023-04-03T14:03:55.820Z,21.42
2023-04-03T14:06:23.146Z,21.45
2023-04-03T14:08:49.886Z,21.04
2023-04-03T14:11:19.972Z,20.82
2023-04-03T14:13:48.181Z,20.70
2023-04-03T14:16:16.887Z,21.24
2023-04-03T14:18:45.452Z,21.64
2023-04-03T14:21:14.234Z,21.21
2023-04-03T14:23:41.015Z,21.48
2023-04-03T14:26:13.153Z,21.24
2023-04-03T14:28:41.791Z,21.08
2023-04-03T14:31:11.924Z,20.79
2023-04-03T14:33:39.331Z,20.75
2023-04-03T14:36:13.936Z,20.54
2023-04-03T14:41:15.992Z,21.14
2023-04-03T14:43:44.012Z,21.15
2023-04-03T14:46:15.171Z,20.92
2023-04-03T14:48:42.521Z,20.97
2023-04-03T14:51:12.103Z,20.90
2023-04-03T14:53:40.521Z,20.66
2023-04-03T14:56:13.159Z,21.10
2023-04-03T14:58:39.788Z,21.06
2023-04-03T15:01:06.438Z,20.55
2023-04-03T15:03:33.317Z,21.18
2023-04-03T15:05:59.992Z,21.64
2023-04-03T15:08:29.512Z,21.79
2023-04-03T15:10:56.825Z,21.73
2023-04-03T15:13:24.913Z,21.35
2023-04-03T15:15:52.946Z,21.54
2023-04-03T15:18:22.485Z,21.52
2023-04-03T15:20:51.291Z,21.05
2023-04-03T15:23:17.987Z,21.47
2023-04-03T15:25:48.564Z,21.62
2023-04-03T15:28:22.788Z,21.49
2023-04-03T15:30:49.594Z,21.47
2023-04-03T15:33:16.365Z,21.22
2023-04-03T15:35:43.520Z,21.42
2023-04-03T15:38:10.289Z,21.36
2023-04-03T15:40:37.244Z,21.35
2023-04-03T15:43:05.735Z,21.52
2023-04-03T15:45:34.329Z,21.19
2023-04-03T15:48:01.472Z,20.86
2023-04-03T15:50:28.436Z,20.73
2023-04-03T15:52:55.489Z,20.64
2023-04-03T15:55:22.793Z,20.43
2023-04-03T15:57:49.591Z,20.19
2023-04-03T16:00:18.568Z,20.49
2023-04-03T16:02:47.429Z,20.49
2023-04-03T16:05:15.642Z,20.69
2023-04-03T16:07:42.808Z,20.70
2023-04-03T16:10:10.792Z,20.72
2023-04-03T16:12:37.894Z,21.06
2023-04-03T16:15:06.372Z,21.08
2023-04-03T16:17:35.451Z,20.95
2023-04-03T16:20:02.722Z,20.75
2023-04-03T16:22:30.348Z,20.66
2023-04-03T16:24:57.371Z,20.45
2023-04-03T16:27:24.343Z,20.73
2023-04-03T16:29:51.005Z,20.89
2023-04-03T16:32:17.840Z,21.14
2023-04-03T16:34:45.898Z,21.24
2023-04-03T16:37:12.670Z,21.41
2023-04-03T16:39:39.295Z,21.22
2023-04-03T16:42:06.038Z,21.03
2023-04-03T16:44:33.120Z,21.21
2023-04-03T16:46:59.809Z,20.83
2023-04-03T16:49:26.655Z,20.59
2023-04-03T16:51:54.755Z,20.72
2023-04-03T16:54:21.471Z,20.75
2023-04-03T16:56:48.129Z,20.68
2023-04-03T16:59:14.849Z,20.37
2023-04-03T17:01:41.526Z,20.28
2023-04-03T17:04:08.391Z,19.77
2023-04-03T17:06:35.392Z,19.93
2023-04-03T17:09:03.760Z,19.84
2023-04-03T17:11:31.811Z,19.99
2023-04-03T17:13:58.691Z,20.21
2023-04-03T17:16:26.944Z,20.14
2023-04-03T17:18:54.456Z,20.04
2023-04-03T17:21:21.767Z,20.14
2023-04-03T17:23:51.921Z,20.30
2023-04-03T17:26:20.033Z,20.05
2023-04-03T17:28:46.889Z,19.74
2023-04-03T17:31:14.646Z,19.38
2023-04-03T17:33:41.458Z,19.39
2023-04-03T17:36:08.766Z,19.62
2023-04-03T17:38:35.940Z,19.71
2023-04-03T17:41:05.685Z,19.43
2023-04-03T17:43:35.352Z,19.61
2023-04-03T17:46:03.045Z,19.18
2023-04-03T17:48:29.960Z,19.40
2023-04-03T17:50:56.580Z,19.32
2023-04-03T17:53:23.311Z,19.44
2023-04-03T17:55:50.081Z,19.39
2023-04-03T17:58:16.730Z,19.15
2023-04-03T18:00:45.071Z,18.94
2023-04-03T18:03:11.800Z,18.92
2023-04-03T18:05:38.781Z,18.83
2023-04-03T18:08:05.947Z,18.84
2023-04-03T18:10:32.939Z,18.75
2023-04-03T18:12:59.912Z,18.57
2023-04-03T18:15:26.647Z,18.40
2023-04-03T18:17:54.776Z,18.41
2023-04-03T18:20:22.066Z,18.43
2023-04-03T18:22:49.002Z,18.26
2023-04-03T18:25:15.752Z,18.15
2023-04-03T18:27:43.287Z,18.08
2023-04-03T18:30:13.921Z,18.02
2023-04-03T18:33:16.915Z,17.97
2023-04-03T18:35:43.918Z,17.75
2023-04-03T18:38:10.939Z,17.92
2023-04-03T18:40:38.047Z,17.81
2023-04-03T18:43:04.725Z,17.69
2023-04-03T18:45:31.388Z,17.54
2023-04-03T18:47:58.180Z,17.53
2023-04-03T18:50:26.395Z,17.57
2023-04-03T18:52:53.135Z,17.49
2023-04-03T18:55:19.903Z,17.42
2023-04-03T18:57:46.688Z,17.37
2023-04-03T19:00:14.111Z,17.21
2023-04-03T19:02:41.273Z,17.20
2023-04-03T19:05:09.445Z,17.12
2023-04-03T19:07:37.628Z,17.16
2023-04-03T19:10:05.025Z,17.06
2023-04-03T19:12:32.020Z,17.04
2023-04-03T19:14:58.785Z,17.03
2023-04-03T19:17:25.457Z,16.97
2023-04-03T19:19:52.229Z,16.88
2023-04-03T19:22:18.935Z,16.85
2023-04-03T19:24:46.883Z,16.87
2023-04-03T19:27:13.607Z,16.69
2023-04-03T19:29:40.332Z,16.72
2023-04-03T19:32:07.038Z,16.66
2023-04-03T19:34:33.704Z,16.58
2023-04-03T19:37:00.421Z,16.49
2023-04-03T19:39:27.043Z,16.36
2023-04-03T19:41:55.150Z,16.29
2023-04-03T19:44:21.795Z,16.32
2023-04-03T19:46:50.843Z,16.26
2023-04-03T19:49:18.594Z,16.11
2023-04-03T19:51:45.227Z,16.07
2023-04-03T19:54:11.931Z,16.01
2023-04-03T19:56:38.649Z,15.91
2023-04-03T19:59:06.811Z,15.82
2023-04-03T20:01:33.618Z,15.78
2023-04-03T20:04:00.485Z,15.82
2023-04-03T20:06:27.210Z,15.68
2023-04-03T20:08:54.185Z,15.65
2023-04-03T20:11:20.857Z,15.56
2023-04-03T20:13:48.908Z,15.53
2023-04-03T20:16:17.266Z,15.58
2023-04-03T20:18:44.594Z,15.56
2023-04-03T20:21:11.280Z,15.45
2023-04-03T20:23:38.309Z,15.67
2023-04-03T20:26:11.673Z,15.63
2023-04-03T20:28:40.311Z,15.53
2023-04-03T20:31:07.363Z,15.60
2023-04-03T20:33:35.482Z,15.64
2023-04-03T20:36:02.392Z,15.39
2023-04-03T20:38:29.228Z,15.25
2023-04-03T20:40:56.181Z,15.25
2023-04-03T20:43:22.879Z,15.24
2023-04-03T20:45:49.698Z,15.25
2023-04-03T20:48:16.704Z,15.28
2023-04-03T20:50:44.941Z,15.26
2023-04-03T20:53:11.932Z,15.28
2023-04-03T20:55:38.657Z,15.30
2023-04-03T20:58:05.336Z,15.19
2023-04-03T21:00:31.945Z,15.17
2023-04-03T21:02:59.548Z,15.12
2023-04-03T21:05:27.727Z,15.22
2023-04-03T21:08:31.796Z,15.13
2023-04-03T21:11:35.636Z,14.93
2023-04-03T21:14:39.945Z,14.86
2023-04-03T21:17:06.430Z,14.88
2023-04-03T21:19:34.530Z,14.75
2023-04-03T21:22:01.653Z,14.69
2023-04-03T21:24:28.596Z,14.58
2023-04-03T21:26:57.115Z,14.60
2023-04-03T21:29:23.748Z,14.59
2023-04-03T21:31:53.479Z,14.61
2023-04-03T21:34:21.509Z,14.62
2023-04-03T21:36:49.630Z,14.57
2023-04-03T21:39:16.512Z,14.65
2023-04-03T21:41:43.271Z,14.56
2023-04-03T21:44:10.029Z,14.52
2023-04-03T21:46:38.873Z,14.33
2023-04-03T21:49:05.603Z,14.29
2023-04-03T21:51:32.312Z,14.12
2023-04-03T21:54:00.423Z,14.13
2023-04-03T21:56:27.237Z,14.27
2023-04-03T21:58:54.042Z,13.84
2023-04-03T22:01:21.240Z,13.87
2023-04-03T22:03:47.888Z,13.91
2023-04-03T22:06:16.454Z,13.82
2023-04-03T22:08:43.964Z,13.81
2023-04-03T22:11:13.802Z,13.89
2023-04-03T22:13:40.759Z,13.67
2023-04-03T22:16:08.528Z,13.51
2023-04-03T22:18:35.884Z,13.71
2023-04-03T22:21:03.087Z,13.67
2023-04-03T22:23:30.264Z,13.82
2023-04-03T22:25:58.091Z,13.74
2023-04-03T22:28:27.506Z,13.79
2023-04-03T22:30:54.209Z,13.91
2023-04-03T22:33:20.906Z,13.85
2023-04-03T22:35:47.888Z,13.36
2023-04-03T22:38:14.740Z,13.52
2023-04-03T22:40:41.900Z,13.38
2023-04-03T22:43:08.797Z,13.21
2023-04-03T22:45:36.846Z,13.63
2023-04-03T22:48:03.858Z,13.65
2023-04-03T22:50:36.724Z,13.52
2023-04-03T22:53:04.360Z,13.47
2023-04-03T22:55:30.959Z,13.90
2023-04-03T22:57:57.593Z,13.66
2023-04-03T23:00:25.409Z,13.48
2023-04-03T23:02:53.502Z,13.48
2023-04-03T23:05:20.362Z,13.61
2023-04-03T23:07:47.180Z,13.74
2023-04-03T23:10:15.984Z,13.75
2023-04-03T23:12:42.655Z,13.69
2023-04-03T23:15:10.168Z,13.87
2023-04-03T23:17:36.898Z,13.87
2023-04-03T23:20:06.745Z,13.95
2023-04-03T23:22:33.422Z,13.75
2023-04-03T23:25:00.062Z,13.66
2023-04-03T23:27:26.833Z,13.59
2023-04-03T23:29:53.535Z,13.57
2023-04-03T23:32:20.255Z,13.50
2023-04-03T23:34:46.963Z,13.60
2023-04-03T23:37:15.060Z,13.39
2023-04-03T23:39:41.823Z,13.43
2023-04-03T23:42:08.562Z,13.30
2023-04-03T23:44:35.367Z,13.28
2023-04-03T23:47:02.077Z,13.27
2023-04-03T23:49:28.911Z,13.45
2023-04-03T23:51:55.975Z,13.53
2023-04-03T23:54:24.028Z,13.47
2023-04-03T23:56:50.745Z,13.22
2023-04-03T23:59:17.498Z,13.03
